»·PEaware :: EJA220 KHCR-KJAC

EJA220 :: KHCR-KJAC

FLIGHT INFORMATION

Flight Status: Arrived
Operator:
Netjets Aviation
More flights by this operator :: More flights under this callsign
Pilot: Ethan S. (29221)
Aircraft: CANADAIR CL-600 CHALLENGER
(CL60)
More flights by this aircraft type
Origin: KHCR Heber Valley
United States
Destination: KJAC Jackson Hole
United States
More flights between these airports :: More routes between these airports
Route: COOLI6 COOLI JOGOX
File this flight plan on PilotEdge
Remarks:
Altitude:
(Current/Filed)
30,000ft
Speed:
(Current/Filed)
465kts
Departed: 17-Nov-23 08:07 PM
Arrived: 17-Nov-23 08:39 PM
Distance/Time
Traveled:
190nm/0:32
Distance/Time
To Go:
Arrived

Flight Plot

Page will automatically refresh every two minutes.

Flight plan parsing failed; only flown route is shown


Map Options




Map Legend


Flown Route
Filed Route
Departure Airport
Arrival Airport
Navaid (VOR, NDB)
Fix

Horizontal Profiles

Position Reports

Time Latitude Longitude Heading Altitude Ground
Speed
17-Nov-23 19:39 40.481543 -111.427866 49 5622ft 12kts
17-Nov-23 19:40 40.483559 -111.424441 144 5627ft 3kts
17-Nov-23 19:41 40.483145 -111.424313 229 5627ft 0kts
17-Nov-23 19:42 40.483145 -111.424313 229 5627ft 0kts
17-Nov-23 19:43 40.483145 -111.424313 229 5627ft 0kts
17-Nov-23 19:44 40.483145 -111.424313 229 5627ft 0kts
17-Nov-23 19:45 40.483145 -111.424313 229 5627ft 0kts
17-Nov-23 19:46 40.483145 -111.424313 229 5627ft 0kts
17-Nov-23 19:47 40.483145 -111.424313 229 5627ft 0kts
17-Nov-23 19:48 40.483145 -111.424313 229 5627ft 0kts
17-Nov-23 19:49 40.483145 -111.424313 229 5627ft 0kts
17-Nov-23 19:50 40.483145 -111.424313 229 5627ft 0kts
17-Nov-23 19:51 40.483145 -111.424313 229 5627ft 0kts
17-Nov-23 19:52 40.483145 -111.424313 229 5627ft 0kts
17-Nov-23 19:53 40.483145 -111.424313 229 5627ft 0kts
17-Nov-23 19:54 40.483145 -111.424313 229 5627ft 0kts
17-Nov-23 19:55 40.483145 -111.424313 229 5627ft 0kts
17-Nov-23 19:56 40.483145 -111.424313 229 5627ft 0kts
17-Nov-23 19:57 40.483145 -111.424313 229 5627ft 0kts
17-Nov-23 19:58 40.483145 -111.424313 229 5627ft 0kts
17-Nov-23 19:59 40.483145 -111.424313 229 5627ft 0kts
17-Nov-23 20:00 40.483145 -111.424313 229 5627ft 0kts
17-Nov-23 20:01 40.483145 -111.424313 229 5627ft 0kts
17-Nov-23 20:02 40.483111 -111.424369 237 5627ft 2kts
17-Nov-23 20:03 40.482111 -111.426988 230 5623ft 15kts
17-Nov-23 20:04 40.477625 -111.433919 229 5604ft 32kts
17-Nov-23 20:05 40.476176 -111.437511 50 5594ft 20kts
17-Nov-23 20:06 40.504522 -111.393347 50 7276ft 241kts
17-Nov-23 20:07 40.553998 -111.316126 37 11131ft 307kts
17-Nov-23 20:08 40.636518 -111.329959 332 15430ft 342kts
17-Nov-23 20:09 40.733329 -111.362423 346 19454ft 376kts
17-Nov-23 20:10 40.841401 -111.351608 3 22945ft 404kts
17-Nov-23 20:11 40.955619 -111.332925 2 25888ft 426kts
17-Nov-23 20:12 41.076498 -111.313547 2 27973ft 455kts
17-Nov-23 20:13 41.206481 -111.285505 4 28067ft 473kts
17-Nov-23 20:14 41.336560 -111.256827 4 28059ft 473kts
17-Nov-23 20:15 41.465882 -111.228217 4 28060ft 470kts
17-Nov-23 20:16 41.595425 -111.199498 5 28062ft 470kts
17-Nov-23 20:17 41.724506 -111.170685 5 28054ft 469kts
17-Nov-23 20:18 41.853187 -111.141956 5 28011ft 469kts
17-Nov-23 20:19 41.981999 -111.113061 5 28029ft 467kts
17-Nov-23 20:20 42.110171 -111.084177 5 27996ft 465kts
17-Nov-23 20:21 42.238028 -111.055281 5 27983ft 467kts
17-Nov-23 20:22 42.365961 -111.026246 5 27989ft 466kts
17-Nov-23 20:23 42.493474 -110.997178 6 27990ft 464kts
17-Nov-23 20:24 42.620962 -110.968000 6 27999ft 463kts
17-Nov-23 20:25 42.746633 -110.939079 6 27477ft 443kts
17-Nov-23 20:26 42.864081 -110.911980 6 25623ft 418kts
17-Nov-23 20:27 42.977315 -110.885698 6 23824ft 407kts
17-Nov-23 20:28 43.086237 -110.860497 6 21417ft 392kts
17-Nov-23 20:29 43.191639 -110.835878 7 18855ft 378kts
17-Nov-23 20:30 43.293138 -110.811996 7 16400ft 357kts
17-Nov-23 20:31 43.382527 -110.790896 7 15200ft 295kts
17-Nov-23 20:32 43.463279 -110.766870 23 14824ft 300kts
17-Nov-23 20:33 43.536683 -110.717117 24 12847ft 268kts
17-Nov-23 20:34 43.597686 -110.675747 24 10958ft 208kts
17-Nov-23 20:35 43.644241 -110.651762 351 9062ft 163kts
17-Nov-23 20:36 43.663049 -110.697505 259 7422ft 144kts
17-Nov-23 20:37 43.628142 -110.727520 200 6765ft 152kts
17-Nov-23 20:38 43.600801 -110.740969 199 6422ft 29kts
17-Nov-23 20:39 43.599260 -110.740236 153 6420ft 3kts
17-Nov-23 20:40 43.599430 -110.738767 119 6421ft 5kts
17-Nov-23 20:41 43.599261 -110.738890 289 6420ft 0kts
17-Nov-23 20:42 43.599261 -110.738890 289 6420ft 0kts
17-Nov-23 20:43 43.599261 -110.738890 289 6421ft 0kts
17-Nov-23 20:44 43.599261 -110.738890 289 6421ft 0kts

Navigation Log

Ident Type
Flight plan parsing failed, navigation log unavailable